ASN logo
Accident
Last updated: 16 October 2017
Statuts:Enquête Préliminaire
Date:mardi 27 décembre 2016
Heure:17:36
Type/Sous-type:Silhouette image of generic C208 model; specific model in this crash may look slightly different
Cessna 208B Grand Caravan
Compagnie:W M K Holdings Ltd
Immatriculation: C-GHLI
Numéro de série: 208B-0565
Année de Fabrication: 1996
Moteurs: 1 Pratt & Whitney Canada PT6A-114A
Equipage:victimes: 0 / à bord: 1
Passagers:victimes: 0 / à bord: 3
Total:victimes: 0 / à bord: 4
Dégats de l'appareil: Substantiels
Lieu de l'accident:0,5 km (0.3 milles) SW of Fort McMurray Airport, AB (YMM) (   Canada)
Phase de vol: En approche (APR)
Nature:Privé
Aéroport de départ:Camrose Airport, AB, Canada
Aéroport de destination:Fort McMurray Airport, AB (YMM/CYMM), Canada
Détails:
A Cessna 208B Grand Caravan sustained damage in an accident near Fort McMurray Airport, Alberta, Canada.
The aircraft was on a VFR flight from Camrose to Fort McMurray, Canada . During the descent through 3 000 feet ASL, approximately 6 nautical miles South of Fort McMurray, the RESERVOIR FUEL LOW warning light illuminated. The pilot completed the checklist for this emergency and informed ATC that the aircraft had an engine issue, however without declaring an emergency. The pilot continued to join the base leg for runway 25 at Fort McMurray Airport. During the turn from base leg to final approach, the engine lost power approximately 1 nautical mile from the runway. The pilot determined that the aircraft would not make the runway and elected to land on a service road east of the airport. The aircraft landed in a field off airport property, approximately 1400 feet South West of the threshold of runway 25. The pilot and the three passengers exited the aircraft with no injuries. The aircraft sustained substantial damage, however there was no post-crash fire.

Accident investigation:
Investigating agency: TSB Canada
Status: No formal investigation conducted
Accident number: A16W0181

Sources:
» fortmcmurraytoday.com
» CBC
» Transport Canada

METAR Weather report:
00:00 UTC / 17:00 local time:
CYMM 280000Z AUTO 23014KT 9SM OVC100 M03/M08 A2923 RMK SLP924

01:00 UTC / 18:00 local time:
CYMM 280100Z AUTO 23010KT 9SM OVC100 M03/M08 A2923 RMK SLP925


Photos

Add your photo of this accident or aircraft

Video, social media

Plan
Ce plan montre l'aéroport de départ ainsi que la supposée destination du vol. La ligne fixe reliant les deux aéroports n'est pas le plan de vol exact.
La distance entre Camrose Airport, AB et Fort McMurray Airport, AB est de 411 km (257 miles).
Accident location: Approximate; accuracy within a few kilometers.

Les informations ci-dessus ne représentent pas l'opinion de la 'Flight Safety Foundation' ou de 'Aviation Safety Network' sur les causes de l'accident. Ces informations prélimimaires sont basées sur les faits tel qu'ils sont connus à ce jour.
languages: languages

Share